createdAt,value
2018-03-30T00:09:45.919Z,22.1
2018-03-30T00:19:44.874Z,22.5
2018-03-30T00:29:44.047Z,22.5
2018-03-30T00:39:43.233Z,22.1
2018-03-30T00:49:42.669Z,22.3
2018-03-30T00:59:41.587Z,22.6
2018-03-30T01:09:40.836Z,22.2
2018-03-30T01:19:40.089Z,22.4
2018-03-30T01:29:39.193Z,22.3
2018-03-30T01:39:38.395Z,22.5
2018-03-30T01:49:37.594Z,22.3
2018-03-30T01:59:36.803Z,22.3
2018-03-30T02:09:36.145Z,22.4
2018-03-30T02:19:35.205Z,22.4
2018-03-30T02:29:34.397Z,22.4
2018-03-30T02:39:33.594Z,22.4
2018-03-30T02:49:32.802Z,22.3
2018-03-30T02:59:32.110Z,22.6
2018-03-30T03:09:31.255Z,22.3
2018-03-30T03:19:30.397Z,22.3
2018-03-30T03:29:29.691Z,22.6
2018-03-30T03:39:28.801Z,22.6
2018-03-30T03:49:28.017Z,22.4
2018-03-30T03:59:27.267Z,22.5
2018-03-30T04:09:26.434Z,22.6
2018-03-30T04:19:25.647Z,22.3
2018-03-30T04:29:25.155Z,22.5
2018-03-30T04:39:24.025Z,22.3
2018-03-30T04:49:23.373Z,22.6
2018-03-30T04:59:22.446Z,22.5
2018-03-30T05:09:21.659Z,22.7
2018-03-30T05:19:20.848Z,22.6
2018-03-30T05:29:20.396Z,22.8
2018-03-30T05:39:19.268Z,22.8
2018-03-30T05:49:18.502Z,22.8
2018-03-30T05:59:17.775Z,23
2018-03-30T06:09:16.863Z,23.1
2018-03-30T06:19:16.129Z,23.1
2018-03-30T06:29:15.558Z,23.3
2018-03-30T06:39:14.462Z,23.4
2018-03-30T06:49:13.723Z,23.4
2018-03-30T06:59:12.952Z,23.7
2018-03-30T07:09:12.123Z,23.9
2018-03-30T07:19:11.266Z,24.1
2018-03-30T07:29:10.469Z,24.1
2018-03-30T07:39:09.669Z,24.1
2018-03-30T07:49:09.085Z,24.3
2018-03-30T07:59:08.179Z,24.4
2018-03-30T08:09:07.327Z,24.5
2018-03-30T08:19:06.559Z,24.6
2018-03-30T08:29:05.766Z,24.8
2018-03-30T08:39:04.980Z,24.9
2018-03-30T08:49:04.184Z,25
2018-03-30T08:59:03.369Z,25.1
2018-03-30T09:09:02.774Z,24.9
2018-03-30T09:19:01.671Z,24.7
2018-03-30T09:29:01.212Z,24.3
2018-03-30T09:39:00.093Z,24.4
2018-03-30T09:48:59.277Z,24.4
2018-03-30T09:58:58.579Z,24.3
2018-03-30T10:08:57.681Z,23.9
2018-03-30T10:18:56.896Z,23.8
2018-03-30T10:28:56.199Z,23.6
2018-03-30T10:38:55.307Z,23.8
2018-03-30T10:48:54.584Z,23.6
2018-03-30T10:58:53.743Z,23.7
2018-03-30T11:08:53.234Z,23.6
2018-03-30T11:18:52.162Z,23.4
2018-03-30T11:28:51.295Z,23.3
2018-03-30T11:38:50.501Z,23.3
2018-03-30T11:48:49.787Z,23.3
2018-03-30T11:58:48.999Z,23.3
2018-03-30T12:08:48.443Z,23.2
2018-03-30T12:18:47.583Z,23.2
2018-03-30T12:28:46.555Z,23.2
2018-03-30T12:38:45.709Z,23.1
2018-03-30T12:48:44.922Z,23.1
2018-03-30T12:58:44.171Z,23
2018-03-30T13:08:43.322Z,22.9
2018-03-30T13:18:42.512Z,22.9
2018-03-30T13:28:42.019Z,23
2018-03-30T13:38:41.104Z,22.8
2018-03-30T13:48:40.129Z,22.9
2018-03-30T13:58:39.318Z,22.8
2018-03-30T14:08:38.542Z,22.9
2018-03-30T14:18:37.730Z,22.6
2018-03-30T14:28:36.980Z,22.9
2018-03-30T14:38:36.177Z,23.1
2018-03-30T14:48:35.503Z,23.2
2018-03-30T14:58:34.630Z,23.3
2018-03-30T15:08:33.826Z,23.3
2018-03-30T15:18:32.983Z,23.3
2018-03-30T15:28:32.141Z,23.2
2018-03-30T15:38:31.350Z,23.1
2018-03-30T15:48:30.538Z,22.4
2018-03-30T15:58:29.810Z,22.9
2018-03-30T16:08:28.950Z,22.9
2018-03-30T16:18:28.159Z,22.8
2018-03-30T16:28:27.354Z,22.8
2018-03-30T16:38:26.565Z,22.8
2018-03-30T16:48:25.880Z,22.9
2018-03-30T16:58:25.026Z,23.1
2018-03-30T17:08:24.183Z,23.2
2018-03-30T17:18:23.391Z,23.3
2018-03-30T17:28:22.591Z,23.5
2018-03-30T17:38:21.811Z,23.4
2018-03-30T17:48:21.113Z,23.4
2018-03-30T17:58:20.303Z,23.5
2018-03-30T18:08:19.700Z,23.5
2018-03-30T18:18:19.004Z,23.5
2018-03-30T18:28:17.832Z,23.6
2018-03-30T18:38:17.028Z,23.6
2018-03-30T18:48:16.299Z,23.5
2018-03-30T18:58:15.513Z,23.5
2018-03-30T19:08:14.703Z,23.4
2018-03-30T19:18:13.862Z,23.4
2018-03-30T19:28:13.124Z,23.1
2018-03-30T19:38:12.284Z,22.9
2018-03-30T19:48:11.477Z,23
2018-03-30T19:58:10.683Z,22.9
2018-03-30T20:08:09.884Z,22.9
2018-03-30T20:18:09.177Z,22.9
2018-03-30T20:28:08.362Z,22.9
2018-03-30T20:38:07.557Z,22.8
2018-03-30T20:48:06.794Z,22.6
2018-03-30T20:58:06.261Z,22.6
2018-03-30T21:08:05.114Z,22.6
2018-03-30T21:18:04.381Z,22.8
2018-03-30T21:28:03.587Z,22.6
2018-03-30T21:38:03.006Z,22.5
2018-03-30T21:48:01.942Z,22.4
2018-03-30T21:58:01.189Z,22.4
2018-03-30T22:08:00.391Z,22.7
2018-03-30T22:17:59.550Z,22.6
2018-03-30T22:27:58.747Z,22.4
2018-03-30T22:37:57.954Z,22.5
2018-03-30T22:47:57.215Z,22.4
2018-03-30T22:57:56.366Z,22.6
2018-03-30T23:07:55.570Z,22.6
2018-03-30T23:17:55.055Z,22.7
2018-03-30T23:27:54.068Z,22.7
2018-03-30T23:37:53.169Z,22.6
2018-03-30T23:47:52.367Z,22.6
2018-03-30T23:57:51.581Z,22.4
